sensor_id;sensor_type;location;lat;lon;timestamp;temperature;humidity
38488;DHT22;57384;51.986;4.458;2023-07-02T00:01:37;20.50;62.00
38488;DHT22;57384;51.986;4.458;2023-07-02T00:04:27;20.50;62.00
38488;DHT22;57384;51.986;4.458;2023-07-02T00:07:12;20.50;62.10
38488;DHT22;57384;51.986;4.458;2023-07-02T00:09:56;20.40;62.00
38488;DHT22;57384;51.986;4.458;2023-07-02T00:12:41;20.40;61.90
38488;DHT22;57384;51.986;4.458;2023-07-02T00:15:25;20.40;61.80
38488;DHT22;57384;51.986;4.458;2023-07-02T00:18:09;20.30;61.70
38488;DHT22;57384;51.986;4.458;2023-07-02T00:20:53;20.30;61.60
38488;DHT22;57384;51.986;4.458;2023-07-02T00:23:37;20.20;61.50
38488;DHT22;57384;51.986;4.458;2023-07-02T00:26:22;20.20;61.40
38488;DHT22;57384;51.986;4.458;2023-07-02T00:29:06;20.20;61.30
38488;DHT22;57384;51.986;4.458;2023-07-02T00:31:50;20.10;61.10
38488;DHT22;57384;51.986;4.458;2023-07-02T00:34:34;20.10;60.90
38488;DHT22;57384;51.986;4.458;2023-07-02T00:37:18;20.00;60.60
38488;DHT22;57384;51.986;4.458;2023-07-02T00:40:03;20.00;60.50
38488;DHT22;57384;51.986;4.458;2023-07-02T00:42:47;20.00;60.40
38488;DHT22;57384;51.986;4.458;2023-07-02T00:45:31;19.90;60.30
38488;DHT22;57384;51.986;4.458;2023-07-02T00:48:15;19.90;60.10
38488;DHT22;57384;51.986;4.458;2023-07-02T00:51:01;19.90;60.00
38488;DHT22;57384;51.986;4.458;2023-07-02T00:53:49;19.80;59.90
38488;DHT22;57384;51.986;4.458;2023-07-02T00:56:34;19.80;59.80
38488;DHT22;57384;51.986;4.458;2023-07-02T00:59:18;19.80;59.80
38488;DHT22;57384;51.986;4.458;2023-07-02T01:02:02;19.70;59.70
38488;DHT22;57384;51.986;4.458;2023-07-02T01:04:47;19.60;59.60
38488;DHT22;57384;51.986;4.458;2023-07-02T01:07:31;19.60;59.50
38488;DHT22;57384;51.986;4.458;2023-07-02T01:10:16;19.60;59.50
38488;DHT22;57384;51.986;4.458;2023-07-02T01:13:04;19.60;59.30
38488;DHT22;57384;51.986;4.458;2023-07-02T01:15:49;19.60;59.10
38488;DHT22;57384;51.986;4.458;2023-07-02T01:18:34;19.40;59.10
38488;DHT22;57384;51.986;4.458;2023-07-02T01:21:19;19.40;58.90
38488;DHT22;57384;51.986;4.458;2023-07-02T01:24:05;19.40;58.80
38488;DHT22;57384;51.986;4.458;2023-07-02T01:26:49;19.30;58.60
38488;DHT22;57384;51.986;4.458;2023-07-02T01:29:34;19.30;58.50
38488;DHT22;57384;51.986;4.458;2023-07-02T01:32:22;19.20;58.40
38488;DHT22;57384;51.986;4.458;2023-07-02T01:35:15;19.20;58.30
38488;DHT22;57384;51.986;4.458;2023-07-02T01:38:00;19.20;58.30
38488;DHT22;57384;51.986;4.458;2023-07-02T01:40:47;19.10;58.30
38488;DHT22;57384;51.986;4.458;2023-07-02T01:43:31;19.10;58.20
38488;DHT22;57384;51.986;4.458;2023-07-02T01:46:15;19.00;58.10
38488;DHT22;57384;51.986;4.458;2023-07-02T01:48:59;19.00;58.20
38488;DHT22;57384;51.986;4.458;2023-07-02T01:51:52;19.00;58.20
38488;DHT22;57384;51.986;4.458;2023-07-02T01:54:37;18.90;58.10
38488;DHT22;57384;51.986;4.458;2023-07-02T01:57:21;18.90;58.20
38488;DHT22;57384;51.986;4.458;2023-07-02T02:00:09;18.80;58.10
38488;DHT22;57384;51.986;4.458;2023-07-02T02:02:53;18.80;58.10
38488;DHT22;57384;51.986;4.458;2023-07-02T02:05:37;18.80;58.10
38488;DHT22;57384;51.986;4.458;2023-07-02T02:08:30;18.80;58.10
38488;DHT22;57384;51.986;4.458;2023-07-02T02:11:15;18.70;58.10
38488;DHT22;57384;51.986;4.458;2023-07-02T02:13:59;18.60;58.10
38488;DHT22;57384;51.986;4.458;2023-07-02T02:16:44;18.60;58.20
38488;DHT22;57384;51.986;4.458;2023-07-02T02:19:31;18.60;58.10
38488;DHT22;57384;51.986;4.458;2023-07-02T02:22:15;18.60;58.20
38488;DHT22;57384;51.986;4.458;2023-07-02T02:25:05;18.50;58.20
38488;DHT22;57384;51.986;4.458;2023-07-02T02:27:49;18.50;58.20
38488;DHT22;57384;51.986;4.458;2023-07-02T02:30:33;18.40;58.20
38488;DHT22;57384;51.986;4.458;2023-07-02T02:33:17;18.40;58.20
38488;DHT22;57384;51.986;4.458;2023-07-02T02:36:02;18.40;58.30
38488;DHT22;57384;51.986;4.458;2023-07-02T02:38:50;18.30;58.20
38488;DHT22;57384;51.986;4.458;2023-07-02T02:41:34;18.30;58.20
38488;DHT22;57384;51.986;4.458;2023-07-02T02:44:18;18.30;58.20
38488;DHT22;57384;51.986;4.458;2023-07-02T02:47:02;18.20;58.20
38488;DHT22;57384;51.986;4.458;2023-07-02T02:49:46;18.20;58.30
38488;DHT22;57384;51.986;4.458;2023-07-02T02:52:30;18.20;58.40
38488;DHT22;57384;51.986;4.458;2023-07-02T02:55:14;18.20;58.40
38488;DHT22;57384;51.986;4.458;2023-07-02T02:58:01;18.20;58.40
38488;DHT22;57384;51.986;4.458;2023-07-02T03:00:45;18.10;58.40
38488;DHT22;57384;51.986;4.458;2023-07-02T03:03:29;18.10;58.50
38488;DHT22;57384;51.986;4.458;2023-07-02T03:06:14;18.00;58.50
38488;DHT22;57384;51.986;4.458;2023-07-02T03:08:59;18.00;58.50
38488;DHT22;57384;51.986;4.458;2023-07-02T03:11:43;18.00;58.60
38488;DHT22;57384;51.986;4.458;2023-07-02T03:14:27;17.90;58.50
38488;DHT22;57384;51.986;4.458;2023-07-02T03:17:12;18.00;58.60
38488;DHT22;57384;51.986;4.458;2023-07-02T03:19:57;17.90;58.60
38488;DHT22;57384;51.986;4.458;2023-07-02T03:22:41;17.90;58.60
38488;DHT22;57384;51.986;4.458;2023-07-02T03:25:43;17.90;58.60
38488;DHT22;57384;51.986;4.458;2023-07-02T03:28:33;17.80;58.70
38488;DHT22;57384;51.986;4.458;2023-07-02T03:31:17;17.80;58.70
38488;DHT22;57384;51.986;4.458;2023-07-02T03:34:08;17.80;58.70
38488;DHT22;57384;51.986;4.458;2023-07-02T03:36:56;17.70;58.70
38488;DHT22;57384;51.986;4.458;2023-07-02T03:39:40;17.70;58.70
38488;DHT22;57384;51.986;4.458;2023-07-02T03:42:27;17.70;58.70
38488;DHT22;57384;51.986;4.458;2023-07-02T03:45:12;17.70;58.70
38488;DHT22;57384;51.986;4.458;2023-07-02T03:47:56;17.70;58.80
38488;DHT22;57384;51.986;4.458;2023-07-02T03:50:40;17.60;58.70
38488;DHT22;57384;51.986;4.458;2023-07-02T03:53:27;17.60;58.70
38488;DHT22;57384;51.986;4.458;2023-07-02T03:56:11;17.60;58.70
38488;DHT22;57384;51.986;4.458;2023-07-02T03:58:55;17.60;58.70
38488;DHT22;57384;51.986;4.458;2023-07-02T04:01:39;17.60;58.70
38488;DHT22;57384;51.986;4.458;2023-07-02T04:04:26;17.60;58.70
38488;DHT22;57384;51.986;4.458;2023-07-02T04:07:10;17.60;58.80
38488;DHT22;57384;51.986;4.458;2023-07-02T04:09:55;17.60;58.70
38488;DHT22;57384;51.986;4.458;2023-07-02T04:12:42;17.50;58.70
38488;DHT22;57384;51.986;4.458;2023-07-02T04:15:26;17.50;58.80
38488;DHT22;57384;51.986;4.458;2023-07-02T04:18:10;17.50;58.80
38488;DHT22;57384;51.986;4.458;2023-07-02T04:20:58;17.50;58.80
38488;DHT22;57384;51.986;4.458;2023-07-02T04:23:42;17.50;58.80
38488;DHT22;57384;51.986;4.458;2023-07-02T04:26:26;17.50;58.80
38488;DHT22;57384;51.986;4.458;2023-07-02T04:29:24;17.50;58.80
38488;DHT22;57384;51.986;4.458;2023-07-02T04:32:11;17.50;58.80
38488;DHT22;57384;51.986;4.458;2023-07-02T04:34:55;17.50;58.80
38488;DHT22;57384;51.986;4.458;2023-07-02T04:37:40;17.50;58.80
38488;DHT22;57384;51.986;4.458;2023-07-02T04:40:27;17.40;58.80
38488;DHT22;57384;51.986;4.458;2023-07-02T04:43:11;17.50;58.90
38488;DHT22;57384;51.986;4.458;2023-07-02T04:45:57;17.50;58.90
38488;DHT22;57384;51.986;4.458;2023-07-02T04:48:41;17.50;58.90
38488;DHT22;57384;51.986;4.458;2023-07-02T04:51:34;17.50;59.00
38488;DHT22;57384;51.986;4.458;2023-07-02T04:54:19;17.50;59.10
38488;DHT22;57384;51.986;4.458;2023-07-02T04:57:06;17.50;59.10
38488;DHT22;57384;51.986;4.458;2023-07-02T04:59:50;17.50;59.20
38488;DHT22;57384;51.986;4.458;2023-07-02T05:02:35;17.50;59.20
38488;DHT22;57384;51.986;4.458;2023-07-02T05:05:34;17.50;59.20
38488;DHT22;57384;51.986;4.458;2023-07-02T05:08:18;17.50;59.40
38488;DHT22;57384;51.986;4.458;2023-07-02T05:11:10;17.50;59.30
38488;DHT22;57384;51.986;4.458;2023-07-02T05:13:59;17.50;59.30
38488;DHT22;57384;51.986;4.458;2023-07-02T05:16:46;17.50;59.40
38488;DHT22;57384;51.986;4.458;2023-07-02T05:19:52;17.50;59.30
38488;DHT22;57384;51.986;4.458;2023-07-02T05:23:08;17.60;59.40
38488;DHT22;57384;51.986;4.458;2023-07-02T05:26:12;17.60;59.60
38488;DHT22;57384;51.986;4.458;2023-07-02T05:29:07;17.60;59.50
38488;DHT22;57384;51.986;4.458;2023-07-02T05:34:59;17.70;59.50
38488;DHT22;57384;51.986;4.458;2023-07-02T05:37:50;17.70;59.40
38488;DHT22;57384;51.986;4.458;2023-07-02T05:40:38;17.80;59.50
38488;DHT22;57384;51.986;4.458;2023-07-02T05:43:29;17.80;59.50
38488;DHT22;57384;51.986;4.458;2023-07-02T05:46:40;17.90;59.50
38488;DHT22;57384;51.986;4.458;2023-07-02T05:49:27;17.90;59.30
38488;DHT22;57384;51.986;4.458;2023-07-02T05:52:12;18.00;59.40
38488;DHT22;57384;51.986;4.458;2023-07-02T05:54:56;18.00;59.30
38488;DHT22;57384;51.986;4.458;2023-07-02T05:57:40;18.00;59.20
38488;DHT22;57384;51.986;4.458;2023-07-02T06:00:30;18.00;59.20
38488;DHT22;57384;51.986;4.458;2023-07-02T06:03:38;18.10;59.20
38488;DHT22;57384;51.986;4.458;2023-07-02T06:06:23;18.20;59.20
38488;DHT22;57384;51.986;4.458;2023-07-02T06:09:14;18.20;59.10
38488;DHT22;57384;51.986;4.458;2023-07-02T06:12:01;18.30;59.10
38488;DHT22;57384;51.986;4.458;2023-07-02T06:14:46;18.30;59.20
38488;DHT22;57384;51.986;4.458;2023-07-02T06:17:33;18.30;59.10
38488;DHT22;57384;51.986;4.458;2023-07-02T06:20:24;18.40;59.10
38488;DHT22;57384;51.986;4.458;2023-07-02T06:23:08;18.40;58.90
38488;DHT22;57384;51.986;4.458;2023-07-02T06:25:57;18.50;58.80
38488;DHT22;57384;51.986;4.458;2023-07-02T06:28:42;18.60;58.60
38488;DHT22;57384;51.986;4.458;2023-07-02T06:31:33;18.70;58.60
38488;DHT22;57384;51.986;4.458;2023-07-02T06:34:18;18.80;58.40
38488;DHT22;57384;51.986;4.458;2023-07-02T06:37:05;18.90;58.20
38488;DHT22;57384;51.986;4.458;2023-07-02T06:39:50;18.90;58.00
38488;DHT22;57384;51.986;4.458;2023-07-02T06:42:40;19.00;57.90
38488;DHT22;57384;51.986;4.458;2023-07-02T06:45:26;19.10;57.50
38488;DHT22;57384;51.986;4.458;2023-07-02T06:48:13;19.30;57.40
38488;DHT22;57384;51.986;4.458;2023-07-02T06:51:07;19.30;57.20
38488;DHT22;57384;51.986;4.458;2023-07-02T06:53:51;19.40;57.00
38488;DHT22;57384;51.986;4.458;2023-07-02T06:56:36;19.50;56.90
38488;DHT22;57384;51.986;4.458;2023-07-02T06:59:27;19.60;56.80
38488;DHT22;57384;51.986;4.458;2023-07-02T07:02:14;19.70;56.70
38488;DHT22;57384;51.986;4.458;2023-07-02T07:04:58;19.80;56.50
38488;DHT22;57384;51.986;4.458;2023-07-02T07:07:42;19.90;56.40
38488;DHT22;57384;51.986;4.458;2023-07-02T07:10:27;19.90;56.30
38488;DHT22;57384;51.986;4.458;2023-07-02T07:13:12;20.00;56.10
38488;DHT22;57384;51.986;4.458;2023-07-02T07:15:56;20.10;56.00
38488;DHT22;57384;51.986;4.458;2023-07-02T07:18:40;20.20;55.90
38488;DHT22;57384;51.986;4.458;2023-07-02T07:21:24;20.30;55.70
38488;DHT22;57384;51.986;4.458;2023-07-02T07:24:08;20.40;55.60
38488;DHT22;57384;51.986;4.458;2023-07-02T07:26:52;20.50;55.60
38488;DHT22;57384;51.986;4.458;2023-07-02T07:29:37;20.60;55.20
38488;DHT22;57384;51.986;4.458;2023-07-02T07:32:21;20.70;55.20
38488;DHT22;57384;51.986;4.458;2023-07-02T07:35:12;20.90;55.20
38488;DHT22;57384;51.986;4.458;2023-07-02T07:37:56;20.90;55.10
38488;DHT22;57384;51.986;4.458;2023-07-02T07:40:42;21.10;54.80
38488;DHT22;57384;51.986;4.458;2023-07-02T07:43:27;21.30;55.00
38488;DHT22;57384;51.986;4.458;2023-07-02T07:46:11;21.40;54.80
38488;DHT22;57384;51.986;4.458;2023-07-02T07:49:00;21.60;54.50
38488;DHT22;57384;51.986;4.458;2023-07-02T07:51:45;21.70;54.40
38488;DHT22;57384;51.986;4.458;2023-07-02T07:54:29;21.90;54.30
38488;DHT22;57384;51.986;4.458;2023-07-02T07:57:14;22.10;54.00
38488;DHT22;57384;51.986;4.458;2023-07-02T07:59:58;22.30;53.90
38488;DHT22;57384;51.986;4.458;2023-07-02T08:02:46;22.40;53.70
38488;DHT22;57384;51.986;4.458;2023-07-02T08:05:31;22.60;53.40
38488;DHT22;57384;51.986;4.458;2023-07-02T08:08:15;22.80;53.30
38488;DHT22;57384;51.986;4.458;2023-07-02T08:14:22;23.20;52.90
38488;DHT22;57384;51.986;4.458;2023-07-02T08:17:07;23.40;52.60
38488;DHT22;57384;51.986;4.458;2023-07-02T08:19:51;23.60;52.60
38488;DHT22;57384;51.986;4.458;2023-07-02T08:22:37;23.80;52.30
38488;DHT22;57384;51.986;4.458;2023-07-02T08:25:24;23.90;52.30
38488;DHT22;57384;51.986;4.458;2023-07-02T08:28:09;24.20;52.50
38488;DHT22;57384;51.986;4.458;2023-07-02T08:31:03;24.30;52.00
38488;DHT22;57384;51.986;4.458;2023-07-02T08:33:48;24.50;51.40
38488;DHT22;57384;51.986;4.458;2023-07-02T08:36:32;24.70;51.30
38488;DHT22;57384;51.986;4.458;2023-07-02T08:52:56;25.60;49.50
38488;DHT22;57384;51.986;4.458;2023-07-02T08:55:40;25.70;49.30
38488;DHT22;57384;51.986;4.458;2023-07-02T08:58:25;25.90;49.10
38488;DHT22;57384;51.986;4.458;2023-07-02T09:01:11;26.00;49.00
38488;DHT22;57384;51.986;4.458;2023-07-02T09:03:59;26.20;49.40
38488;DHT22;57384;51.986;4.458;2023-07-02T09:06:43;26.40;48.90
38488;DHT22;57384;51.986;4.458;2023-07-02T09:09:27;26.50;49.00
38488;DHT22;57384;51.986;4.458;2023-07-02T09:12:28;26.70;48.90
38488;DHT22;57384;51.986;4.458;2023-07-02T09:15:14;26.90;48.10
38488;DHT22;57384;51.986;4.458;2023-07-02T09:21:20;27.20;47.90
38488;DHT22;57384;51.986;4.458;2023-07-02T09:27:00;27.50;47.50
38488;DHT22;57384;51.986;4.458;2023-07-02T09:29:50;27.70;48.10
38488;DHT22;57384;51.986;4.458;2023-07-02T09:32:34;27.90;47.90
38488;DHT22;57384;51.986;4.458;2023-07-02T09:35:19;28.00;47.60
38488;DHT22;57384;51.986;4.458;2023-07-02T09:38:03;28.20;47.30
38488;DHT22;57384;51.986;4.458;2023-07-02T09:40:49;28.30;46.80
38488;DHT22;57384;51.986;4.458;2023-07-02T09:43:33;28.50;46.60
38488;DHT22;57384;51.986;4.458;2023-07-02T09:46:18;28.60;46.30
38488;DHT22;57384;51.986;4.458;2023-07-02T09:49:02;28.70;45.90
38488;DHT22;57384;51.986;4.458;2023-07-02T09:51:46;28.90;45.70
38488;DHT22;57384;51.986;4.458;2023-07-02T09:54:31;29.00;45.00
38488;DHT22;57384;51.986;4.458;2023-07-02T09:57:16;29.10;44.90
38488;DHT22;57384;51.986;4.458;2023-07-02T10:00:01;29.20;44.40
38488;DHT22;57384;51.986;4.458;2023-07-02T10:02:49;29.20;43.70
38488;DHT22;57384;51.986;4.458;2023-07-02T10:05:34;29.30;43.40
38488;DHT22;57384;51.986;4.458;2023-07-02T10:08:18;29.30;43.30
38488;DHT22;57384;51.986;4.458;2023-07-02T10:11:10;29.40;43.00
38488;DHT22;57384;51.986;4.458;2023-07-02T10:13:58;29.40;42.70
38488;DHT22;57384;51.986;4.458;2023-07-02T10:16:55;29.40;41.80
38488;DHT22;57384;51.986;4.458;2023-07-02T10:19:50;29.40;41.90
38488;DHT22;57384;51.986;4.458;2023-07-02T10:22:50;29.40;41.40
38488;DHT22;57384;51.986;4.458;2023-07-02T10:25:44;29.50;41.40
38488;DHT22;57384;51.986;4.458;2023-07-02T10:28:28;29.60;41.60
38488;DHT22;57384;51.986;4.458;2023-07-02T10:31:28;29.60;41.50
38488;DHT22;57384;51.986;4.458;2023-07-02T10:34:15;29.70;41.60
38488;DHT22;57384;51.986;4.458;2023-07-02T10:37:01;29.80;41.20
38488;DHT22;57384;51.986;4.458;2023-07-02T10:39:51;29.80;41.30
38488;DHT22;57384;51.986;4.458;2023-07-02T10:42:47;29.90;41.30
38488;DHT22;57384;51.986;4.458;2023-07-02T10:45:35;30.00;40.60
38488;DHT22;57384;51.986;4.458;2023-07-02T10:48:20;30.00;40.50
38488;DHT22;57384;51.986;4.458;2023-07-02T10:51:12;30.20;40.80
38488;DHT22;57384;51.986;4.458;2023-07-02T10:54:02;30.20;40.30
38488;DHT22;57384;51.986;4.458;2023-07-02T10:56:46;30.30;40.50
38488;DHT22;57384;51.986;4.458;2023-07-02T10:59:30;30.40;40.60
38488;DHT22;57384;51.986;4.458;2023-07-02T11:02:15;30.50;40.60
38488;DHT22;57384;51.986;4.458;2023-07-02T11:05:00;30.50;40.30
38488;DHT22;57384;51.986;4.458;2023-07-02T11:07:45;30.60;40.30
38488;DHT22;57384;51.986;4.458;2023-07-02T11:10:29;30.70;41.00
38488;DHT22;57384;51.986;4.458;2023-07-02T11:13:18;30.70;40.10
38488;DHT22;57384;51.986;4.458;2023-07-02T11:16:03;30.80;40.00
38488;DHT22;57384;51.986;4.458;2023-07-02T11:18:47;30.90;39.70
38488;DHT22;57384;51.986;4.458;2023-07-02T11:21:31;30.90;39.50
38488;DHT22;57384;51.986;4.458;2023-07-02T11:24:15;31.10;39.70
38488;DHT22;57384;51.986;4.458;2023-07-02T11:27:00;31.20;39.10
38488;DHT22;57384;51.986;4.458;2023-07-02T11:29:45;31.20;38.70
38488;DHT22;57384;51.986;4.458;2023-07-02T11:32:29;31.30;38.60
38488;DHT22;57384;51.986;4.458;2023-07-02T11:35:13;31.40;38.70
38488;DHT22;57384;51.986;4.458;2023-07-02T11:37:58;31.50;38.90
38488;DHT22;57384;51.986;4.458;2023-07-02T11:40:42;31.60;38.80
38488;DHT22;57384;51.986;4.458;2023-07-02T11:43:26;31.70;38.30
38488;DHT22;57384;51.986;4.458;2023-07-02T11:46:10;31.90;38.40
38488;DHT22;57384;51.986;4.458;2023-07-02T11:48:54;32.00;38.70
38488;DHT22;57384;51.986;4.458;2023-07-02T11:51:40;32.10;38.50
38488;DHT22;57384;51.986;4.458;2023-07-02T11:54:25;32.30;38.40
38488;DHT22;57384;51.986;4.458;2023-07-02T11:57:11;32.50;37.90
38488;DHT22;57384;51.986;4.458;2023-07-02T11:59:55;32.70;37.70
38488;DHT22;57384;51.986;4.458;2023-07-02T12:02:40;32.80;37.30
38488;DHT22;57384;51.986;4.458;2023-07-02T12:05:24;33.00;37.70
38488;DHT22;57384;51.986;4.458;2023-07-02T12:08:08;33.20;37.70
38488;DHT22;57384;51.986;4.458;2023-07-02T12:10:52;33.30;37.40
38488;DHT22;57384;51.986;4.458;2023-07-02T12:13:36;33.50;37.10
38488;DHT22;57384;51.986;4.458;2023-07-02T12:16:20;33.70;36.60
38488;DHT22;57384;51.986;4.458;2023-07-02T12:19:04;33.80;36.20
38488;DHT22;57384;51.986;4.458;2023-07-02T12:21:49;34.00;36.40
38488;DHT22;57384;51.986;4.458;2023-07-02T12:24:33;34.10;36.00
38488;DHT22;57384;51.986;4.458;2023-07-02T12:27:17;34.20;35.90
38488;DHT22;57384;51.986;4.458;2023-07-02T12:30:01;34.40;35.30
38488;DHT22;57384;51.986;4.458;2023-07-02T12:32:45;34.50;35.50
38488;DHT22;57384;51.986;4.458;2023-07-02T12:35:29;34.60;35.00
38488;DHT22;57384;51.986;4.458;2023-07-02T12:38:13;34.70;34.30
38488;DHT22;57384;51.986;4.458;2023-07-02T12:40:57;34.80;33.70
38488;DHT22;57384;51.986;4.458;2023-07-02T12:43:42;34.90;34.00
38488;DHT22;57384;51.986;4.458;2023-07-02T12:46:26;35.00;34.10
38488;DHT22;57384;51.986;4.458;2023-07-02T12:49:10;35.10;33.90
38488;DHT22;57384;51.986;4.458;2023-07-02T12:51:54;35.20;33.40
38488;DHT22;57384;51.986;4.458;2023-07-02T12:54:38;35.20;32.80
38488;DHT22;57384;51.986;4.458;2023-07-02T12:57:22;35.30;32.90
38488;DHT22;57384;51.986;4.458;2023-07-02T13:00:07;35.40;32.80
38488;DHT22;57384;51.986;4.458;2023-07-02T13:02:51;35.50;32.70
38488;DHT22;57384;51.986;4.458;2023-07-02T13:05:35;35.60;32.40
38488;DHT22;57384;51.986;4.458;2023-07-02T13:08:19;35.70;32.30
38488;DHT22;57384;51.986;4.458;2023-07-02T13:11:03;35.80;32.40
38488;DHT22;57384;51.986;4.458;2023-07-02T13:13:47;35.90;31.80
38488;DHT22;57384;51.986;4.458;2023-07-02T13:16:33;36.00;31.90
38488;DHT22;57384;51.986;4.458;2023-07-02T13:19:17;36.10;31.70
38488;DHT22;57384;51.986;4.458;2023-07-02T13:22:02;36.10;31.60
38488;DHT22;57384;51.986;4.458;2023-07-02T13:24:46;36.20;31.50
38488;DHT22;57384;51.986;4.458;2023-07-02T13:27:30;36.20;31.10
38488;DHT22;57384;51.986;4.458;2023-07-02T13:30:14;36.30;30.80
38488;DHT22;57384;51.986;4.458;2023-07-02T13:32:58;36.20;30.80
38488;DHT22;57384;51.986;4.458;2023-07-02T13:35:42;36.30;30.50
38488;DHT22;57384;51.986;4.458;2023-07-02T13:38:26;36.20;30.50
38488;DHT22;57384;51.986;4.458;2023-07-02T13:41:10;36.10;30.10
38488;DHT22;57384;51.986;4.458;2023-07-02T13:43:54;36.00;30.30
38488;DHT22;57384;51.986;4.458;2023-07-02T13:46:38;36.00;30.50
38488;DHT22;57384;51.986;4.458;2023-07-02T13:49:22;36.00;30.40
38488;DHT22;57384;51.986;4.458;2023-07-02T13:52:06;35.90;30.10
38488;DHT22;57384;51.986;4.458;2023-07-02T13:54:51;35.90;30.20
38488;DHT22;57384;51.986;4.458;2023-07-02T13:57:34;35.80;29.90
38488;DHT22;57384;51.986;4.458;2023-07-02T14:00:19;35.80;30.00
38488;DHT22;57384;51.986;4.458;2023-07-02T14:03:05;35.70;30.10
38488;DHT22;57384;51.986;4.458;2023-07-02T14:05:49;35.70;30.10
38488;DHT22;57384;51.986;4.458;2023-07-02T14:08:33;35.70;30.10
38488;DHT22;57384;51.986;4.458;2023-07-02T14:11:17;35.70;30.00
38488;DHT22;57384;51.986;4.458;2023-07-02T14:14:01;35.70;30.10
38488;DHT22;57384;51.986;4.458;2023-07-02T14:16:45;35.80;30.30
38488;DHT22;57384;51.986;4.458;2023-07-02T14:19:29;35.80;30.00
38488;DHT22;57384;51.986;4.458;2023-07-02T14:22:13;35.90;30.20
38488;DHT22;57384;51.986;4.458;2023-07-02T14:24:57;35.90;30.40
38488;DHT22;57384;51.986;4.458;2023-07-02T14:27:41;35.80;30.00
38488;DHT22;57384;51.986;4.458;2023-07-02T14:30:25;35.80;29.90
38488;DHT22;57384;51.986;4.458;2023-07-02T14:33:09;35.80;30.00
38488;DHT22;57384;51.986;4.458;2023-07-02T14:35:54;35.70;29.80
38488;DHT22;57384;51.986;4.458;2023-07-02T14:38:38;35.70;29.90
38488;DHT22;57384;51.986;4.458;2023-07-02T14:41:22;35.60;29.80
38488;DHT22;57384;51.986;4.458;2023-07-02T14:44:06;35.60;29.90
38488;DHT22;57384;51.986;4.458;2023-07-02T14:46:51;35.50;29.80
38488;DHT22;57384;51.986;4.458;2023-07-02T14:49:37;35.40;29.90
38488;DHT22;57384;51.986;4.458;2023-07-02T14:52:21;35.30;29.70
38488;DHT22;57384;51.986;4.458;2023-07-02T14:55:05;35.10;29.70
38488;DHT22;57384;51.986;4.458;2023-07-02T14:57:49;35.00;29.90
38488;DHT22;57384;51.986;4.458;2023-07-02T15:00:33;35.00;29.90
38488;DHT22;57384;51.986;4.458;2023-07-02T15:03:18;34.90;30.00
38488;DHT22;57384;51.986;4.458;2023-07-02T15:06:11;34.80;30.00
38488;DHT22;57384;51.986;4.458;2023-07-02T15:08:56;34.70;29.90
38488;DHT22;57384;51.986;4.458;2023-07-02T15:11:40;34.60;30.00
38488;DHT22;57384;51.986;4.458;2023-07-02T15:14:24;34.60;29.90
38488;DHT22;57384;51.986;4.458;2023-07-02T15:17:08;34.60;29.80
38488;DHT22;57384;51.986;4.458;2023-07-02T15:19:52;34.50;29.60
38488;DHT22;57384;51.986;4.458;2023-07-02T15:22:37;34.40;29.60
38488;DHT22;57384;51.986;4.458;2023-07-02T15:25:24;34.40;29.60
38488;DHT22;57384;51.986;4.458;2023-07-02T15:28:08;34.30;29.70
38488;DHT22;57384;51.986;4.458;2023-07-02T15:30:53;34.20;29.70
38488;DHT22;57384;51.986;4.458;2023-07-02T15:33:38;34.00;29.80
38488;DHT22;57384;51.986;4.458;2023-07-02T15:36:22;33.90;29.80
38488;DHT22;57384;51.986;4.458;2023-07-02T15:39:06;33.80;29.80
38488;DHT22;57384;51.986;4.458;2023-07-02T15:41:50;33.70;29.90
38488;DHT22;57384;51.986;4.458;2023-07-02T15:44:34;33.60;30.00
38488;DHT22;57384;51.986;4.458;2023-07-02T15:47:18;33.50;30.00
38488;DHT22;57384;51.986;4.458;2023-07-02T15:50:02;33.40;30.10
38488;DHT22;57384;51.986;4.458;2023-07-02T15:52:46;33.40;30.20
38488;DHT22;57384;51.986;4.458;2023-07-02T15:55:34;33.30;30.30
38488;DHT22;57384;51.986;4.458;2023-07-02T15:58:18;33.20;30.30
38488;DHT22;57384;51.986;4.458;2023-07-02T16:01:14;33.10;30.40
38488;DHT22;57384;51.986;4.458;2023-07-02T16:03:58;33.00;30.50
38488;DHT22;57384;51.986;4.458;2023-07-02T16:06:43;32.90;30.60
38488;DHT22;57384;51.986;4.458;2023-07-02T16:09:28;32.80;30.60
38488;DHT22;57384;51.986;4.458;2023-07-02T16:12:12;32.60;30.60
38488;DHT22;57384;51.986;4.458;2023-07-02T16:14:56;32.50;31.40
38488;DHT22;57384;51.986;4.458;2023-07-02T16:17:40;32.40;30.90
38488;DHT22;57384;51.986;4.458;2023-07-02T16:20:25;32.20;31.00
38488;DHT22;57384;51.986;4.458;2023-07-02T16:23:08;32.10;31.10
38488;DHT22;57384;51.986;4.458;2023-07-02T16:26:11;32.00;31.20
38488;DHT22;57384;51.986;4.458;2023-07-02T16:28:56;31.90;31.40
38488;DHT22;57384;51.986;4.458;2023-07-02T16:31:48;31.70;31.40
38488;DHT22;57384;51.986;4.458;2023-07-02T16:34:32;31.60;31.60
38488;DHT22;57384;51.986;4.458;2023-07-02T16:37:16;31.50;31.80
38488;DHT22;57384;51.986;4.458;2023-07-02T16:40:02;31.40;31.90
38488;DHT22;57384;51.986;4.458;2023-07-02T16:42:47;31.30;32.10
38488;DHT22;57384;51.986;4.458;2023-07-02T16:45:31;31.10;32.20
38488;DHT22;57384;51.986;4.458;2023-07-02T16:48:15;31.00;32.50
38488;DHT22;57384;51.986;4.458;2023-07-02T16:51:04;30.80;32.30
38488;DHT22;57384;51.986;4.458;2023-07-02T16:53:49;30.80;32.60
38488;DHT22;57384;51.986;4.458;2023-07-02T16:56:33;30.60;32.60
38488;DHT22;57384;51.986;4.458;2023-07-02T16:59:21;30.50;32.80
38488;DHT22;57384;51.986;4.458;2023-07-02T17:02:07;30.40;32.90
38488;DHT22;57384;51.986;4.458;2023-07-02T17:04:52;30.30;33.00
38488;DHT22;57384;51.986;4.458;2023-07-02T17:07:36;30.20;33.20
38488;DHT22;57384;51.986;4.458;2023-07-02T17:10:21;30.10;33.20
38488;DHT22;57384;51.986;4.458;2023-07-02T17:13:05;29.90;33.20
38488;DHT22;57384;51.986;4.458;2023-07-02T17:15:49;29.90;33.40
38488;DHT22;57384;51.986;4.458;2023-07-02T17:18:34;29.70;33.70
38488;DHT22;57384;51.986;4.458;2023-07-02T17:21:18;29.70;33.60
38488;DHT22;57384;51.986;4.458;2023-07-02T17:24:02;29.50;33.60
38488;DHT22;57384;51.986;4.458;2023-07-02T17:26:47;29.40;33.70
38488;DHT22;57384;51.986;4.458;2023-07-02T17:29:32;29.30;33.90
38488;DHT22;57384;51.986;4.458;2023-07-02T17:32:16;29.20;34.00
38488;DHT22;57384;51.986;4.458;2023-07-02T17:35:01;29.10;34.20
38488;DHT22;57384;51.986;4.458;2023-07-02T17:37:45;29.00;34.30
38488;DHT22;57384;51.986;4.458;2023-07-02T17:40:31;28.90;34.50
38488;DHT22;57384;51.986;4.458;2023-07-02T17:43:18;28.80;34.60
38488;DHT22;57384;51.986;4.458;2023-07-02T17:46:03;28.70;34.80
38488;DHT22;57384;51.986;4.458;2023-07-02T17:48:47;28.60;35.00
38488;DHT22;57384;51.986;4.458;2023-07-02T17:51:31;28.50;35.20
38488;DHT22;57384;51.986;4.458;2023-07-02T17:54:16;28.40;35.40